sensor_id;sensor_type;location;lat;lon;timestamp;P1;durP1;ratioP1;P2;durP2;ratioP2
14603;SDS011;7388;51.078;13.740;2022-10-17T00:02:24;6.93;;;5.17;;
14603;SDS011;7388;51.078;13.740;2022-10-17T00:04:50;9.00;;;6.77;;
14603;SDS011;7388;51.078;13.740;2022-10-17T00:07:15;5.13;;;4.47;;
14603;SDS011;7388;51.078;13.740;2022-10-17T00:09:41;5.00;;;4.10;;
14603;SDS011;7388;51.078;13.740;2022-10-17T00:12:08;7.20;;;6.47;;
14603;SDS011;7388;51.078;13.740;2022-10-17T00:14:33;7.80;;;4.07;;
14603;SDS011;7388;51.078;13.740;2022-10-17T00:17:00;4.95;;;4.45;;
14603;SDS011;7388;51.078;13.740;2022-10-17T00:19:26;5.07;;;4.03;;
14603;SDS011;7388;51.078;13.740;2022-10-17T00:21:51;6.23;;;4.23;;
14603;SDS011;7388;51.078;13.740;2022-10-17T00:24:17;4.70;;;3.70;;
14603;SDS011;7388;51.078;13.740;2022-10-17T00:26:43;4.90;;;4.33;;
14603;SDS011;7388;51.078;13.740;2022-10-17T00:29:09;4.50;;;3.87;;
14603;SDS011;7388;51.078;13.740;2022-10-17T00:31:34;5.83;;;4.07;;
14603;SDS011;7388;51.078;13.740;2022-10-17T00:34:00;9.10;;;4.70;;
14603;SDS011;7388;51.078;13.740;2022-10-17T00:36:26;5.57;;;4.57;;
14603;SDS011;7388;51.078;13.740;2022-10-17T00:38:53;4.63;;;3.60;;
14603;SDS011;7388;51.078;13.740;2022-10-17T00:41:23;5.57;;;4.22;;
14603;SDS011;7388;51.078;13.740;2022-10-17T00:46:25;5.70;;;5.15;;
14603;SDS011;7388;51.078;13.740;2022-10-17T00:48:53;5.22;;;4.72;;
14603;SDS011;7388;51.078;13.740;2022-10-17T00:51:29;6.60;;;4.60;;
14603;SDS011;7388;51.078;13.740;2022-10-17T00:54:01;6.55;;;5.07;;
14603;SDS011;7388;51.078;13.740;2022-10-17T00:56:28;7.40;;;4.57;;
14603;SDS011;7388;51.078;13.740;2022-10-17T00:58:54;5.70;;;4.68;;
14603;SDS011;7388;51.078;13.740;2022-10-17T01:01:20;4.45;;;4.05;;
14603;SDS011;7388;51.078;13.740;2022-10-17T01:03:46;4.40;;;3.70;;
14603;SDS011;7388;51.078;13.740;2022-10-17T01:06:12;5.33;;;4.27;;
14603;SDS011;7388;51.078;13.740;2022-10-17T01:08:38;7.30;;;4.87;;
14603;SDS011;7388;51.078;13.740;2022-10-17T01:13:51;7.57;;;5.57;;
14603;SDS011;7388;51.078;13.740;2022-10-17T01:22:08;4.53;;;3.95;;
14603;SDS011;7388;51.078;13.740;2022-10-17T01:32:44;5.35;;;4.10;;
14603;SDS011;7388;51.078;13.740;2022-10-17T01:35:36;6.18;;;4.25;;
14603;SDS011;7388;51.078;13.740;2022-10-17T01:38:10;7.35;;;4.85;;
14603;SDS011;7388;51.078;13.740;2022-10-17T01:43:43;5.97;;;4.78;;
14603;SDS011;7388;51.078;13.740;2022-10-17T01:48:59;4.63;;;4.10;;
14603;SDS011;7388;51.078;13.740;2022-10-17T01:51:32;4.22;;;3.83;;
14603;SDS011;7388;51.078;13.740;2022-10-17T01:54:05;4.32;;;3.88;;
14603;SDS011;7388;51.078;13.740;2022-10-17T01:56:55;4.75;;;4.35;;
14603;SDS011;7388;51.078;13.740;2022-10-17T01:59:25;7.10;;;4.30;;
14603;SDS011;7388;51.078;13.740;2022-10-17T02:02:01;6.28;;;4.70;;
14603;SDS011;7388;51.078;13.740;2022-10-17T02:04:27;4.77;;;4.27;;
14603;SDS011;7388;51.078;13.740;2022-10-17T02:06:53;6.25;;;5.22;;
14603;SDS011;7388;51.078;13.740;2022-10-17T02:09:20;8.30;;;4.03;;
14603;SDS011;7388;51.078;13.740;2022-10-17T02:12:10;4.65;;;4.13;;
14603;SDS011;7388;51.078;13.740;2022-10-17T02:20:27;5.20;;;4.63;;
14603;SDS011;7388;51.078;13.740;2022-10-17T02:23:15;9.63;;;7.10;;
14603;SDS011;7388;51.078;13.740;2022-10-17T02:25:54;7.97;;;5.75;;
14603;SDS011;7388;51.078;13.740;2022-10-17T02:28:45;5.97;;;5.22;;
14603;SDS011;7388;51.078;13.740;2022-10-17T02:31:37;7.85;;;5.35;;
14603;SDS011;7388;51.078;13.740;2022-10-17T02:34:07;6.72;;;5.07;;
14603;SDS011;7388;51.078;13.740;2022-10-17T02:36:47;5.93;;;5.32;;
14603;SDS011;7388;51.078;13.740;2022-10-17T02:39:19;7.13;;;5.15;;
14603;SDS011;7388;51.078;13.740;2022-10-17T02:41:48;7.32;;;5.97;;
14603;SDS011;7388;51.078;13.740;2022-10-17T02:44:15;7.43;;;5.78;;
14603;SDS011;7388;51.078;13.740;2022-10-17T02:46:41;8.52;;;6.25;;
14603;SDS011;7388;51.078;13.740;2022-10-17T02:49:27;7.70;;;5.82;;
14603;SDS011;7388;51.078;13.740;2022-10-17T02:54:36;5.07;;;4.57;;
14603;SDS011;7388;51.078;13.740;2022-10-17T02:57:15;8.70;;;4.75;;
14603;SDS011;7388;51.078;13.740;2022-10-17T02:59:52;5.20;;;4.68;;
14603;SDS011;7388;51.078;13.740;2022-10-17T03:02:20;8.18;;;5.55;;
14603;SDS011;7388;51.078;13.740;2022-10-17T03:04:46;8.23;;;5.63;;
14603;SDS011;7388;51.078;13.740;2022-10-17T03:07:12;10.00;;;6.73;;
14603;SDS011;7388;51.078;13.740;2022-10-17T03:09:38;6.27;;;4.97;;
14603;SDS011;7388;51.078;13.740;2022-10-17T03:12:03;10.90;;;5.57;;
14603;SDS011;7388;51.078;13.740;2022-10-17T03:14:29;9.75;;;5.50;;
14603;SDS011;7388;51.078;13.740;2022-10-17T03:16:55;8.60;;;6.30;;
14603;SDS011;7388;51.078;13.740;2022-10-17T03:19:21;6.33;;;5.70;;
14603;SDS011;7388;51.078;13.740;2022-10-17T03:21:47;8.03;;;5.37;;
14603;SDS011;7388;51.078;13.740;2022-10-17T03:24:12;17.43;;;7.03;;
14603;SDS011;7388;51.078;13.740;2022-10-17T03:26:38;9.37;;;6.90;;
14603;SDS011;7388;51.078;13.740;2022-10-17T03:29:04;9.00;;;6.67;;
14603;SDS011;7388;51.078;13.740;2022-10-17T03:31:30;11.03;;;6.47;;
14603;SDS011;7388;51.078;13.740;2022-10-17T03:33:56;10.77;;;6.83;;
14603;SDS011;7388;51.078;13.740;2022-10-17T03:36:22;9.20;;;7.05;;
14603;SDS011;7388;51.078;13.740;2022-10-17T03:38:48;8.10;;;5.53;;
14603;SDS011;7388;51.078;13.740;2022-10-17T03:41:18;9.50;;;6.70;;
14603;SDS011;7388;51.078;13.740;2022-10-17T03:43:44;12.83;;;7.10;;
14603;SDS011;7388;51.078;13.740;2022-10-17T03:46:10;9.10;;;6.77;;
14603;SDS011;7388;51.078;13.740;2022-10-17T03:48:35;10.67;;;7.93;;
14603;SDS011;7388;51.078;13.740;2022-10-17T03:51:03;14.50;;;7.67;;
14603;SDS011;7388;51.078;13.740;2022-10-17T03:53:30;9.95;;;6.40;;
14603;SDS011;7388;51.078;13.740;2022-10-17T03:55:56;9.73;;;6.37;;
14603;SDS011;7388;51.078;13.740;2022-10-17T03:58:36;11.30;;;8.82;;
14603;SDS011;7388;51.078;13.740;2022-10-17T04:01:03;14.37;;;7.80;;
14603;SDS011;7388;51.078;13.740;2022-10-17T04:03:30;14.68;;;9.40;;
14603;SDS011;7388;51.078;13.740;2022-10-17T04:05:59;12.60;;;8.77;;
14603;SDS011;7388;51.078;13.740;2022-10-17T04:08:26;12.50;;;11.05;;
14603;SDS011;7388;51.078;13.740;2022-10-17T04:10:51;13.30;;;10.67;;
14603;SDS011;7388;51.078;13.740;2022-10-17T04:13:21;13.02;;;9.52;;
14603;SDS011;7388;51.078;13.740;2022-10-17T04:15:57;11.67;;;9.57;;
14603;SDS011;7388;51.078;13.740;2022-10-17T04:18:24;17.30;;;10.07;;
14603;SDS011;7388;51.078;13.740;2022-10-17T04:20:50;13.53;;;9.67;;
14603;SDS011;7388;51.078;13.740;2022-10-17T04:23:16;14.73;;;8.57;;
14603;SDS011;7388;51.078;13.740;2022-10-17T04:25:43;11.65;;;9.20;;
14603;SDS011;7388;51.078;13.740;2022-10-17T04:28:08;13.80;;;8.10;;
14603;SDS011;7388;51.078;13.740;2022-10-17T04:30:34;10.80;;;8.50;;
14603;SDS011;7388;51.078;13.740;2022-10-17T04:33:00;14.20;;;9.60;;
14603;SDS011;7388;51.078;13.740;2022-10-17T04:35:26;12.63;;;9.10;;
14603;SDS011;7388;51.078;13.740;2022-10-17T04:37:52;10.73;;;9.13;;
14603;SDS011;7388;51.078;13.740;2022-10-17T04:40:17;15.23;;;10.30;;
14603;SDS011;7388;51.078;13.740;2022-10-17T04:42:43;14.60;;;10.13;;
14603;SDS011;7388;51.078;13.740;2022-10-17T04:45:09;16.30;;;11.60;;
14603;SDS011;7388;51.078;13.740;2022-10-17T04:47:35;13.73;;;10.33;;
14603;SDS011;7388;51.078;13.740;2022-10-17T04:50:00;15.87;;;11.03;;
14603;SDS011;7388;51.078;13.740;2022-10-17T04:52:26;16.70;;;11.40;;
14603;SDS011;7388;51.078;13.740;2022-10-17T04:54:52;15.90;;;11.30;;
14603;SDS011;7388;51.078;13.740;2022-10-17T04:57:18;15.13;;;11.20;;
14603;SDS011;7388;51.078;13.740;2022-10-17T04:59:44;17.07;;;13.70;;
14603;SDS011;7388;51.078;13.740;2022-10-17T05:02:10;17.95;;;12.25;;
14603;SDS011;7388;51.078;13.740;2022-10-17T05:04:36;17.07;;;14.17;;
14603;SDS011;7388;51.078;13.740;2022-10-17T05:07:01;19.47;;;14.83;;
14603;SDS011;7388;51.078;13.740;2022-10-17T05:09:27;18.77;;;14.40;;
14603;SDS011;7388;51.078;13.740;2022-10-17T05:11:54;22.15;;;14.35;;
14603;SDS011;7388;51.078;13.740;2022-10-17T05:14:19;18.53;;;13.80;;
14603;SDS011;7388;51.078;13.740;2022-10-17T05:16:45;23.30;;;14.20;;
14603;SDS011;7388;51.078;13.740;2022-10-17T05:19:11;19.73;;;14.00;;
14603;SDS011;7388;51.078;13.740;2022-10-17T05:21:37;16.00;;;12.50;;
14603;SDS011;7388;51.078;13.740;2022-10-17T05:24:04;19.70;;;14.35;;
14603;SDS011;7388;51.078;13.740;2022-10-17T05:26:30;19.83;;;14.77;;
14603;SDS011;7388;51.078;13.740;2022-10-17T05:28:56;20.13;;;14.40;;
14603;SDS011;7388;51.078;13.740;2022-10-17T05:31:26;23.88;;;16.92;;
14603;SDS011;7388;51.078;13.740;2022-10-17T05:33:53;23.85;;;17.70;;
14603;SDS011;7388;51.078;13.740;2022-10-17T05:36:19;25.93;;;16.50;;
14603;SDS011;7388;51.078;13.740;2022-10-17T05:38:48;20.07;;;15.87;;
14603;SDS011;7388;51.078;13.740;2022-10-17T05:41:15;20.13;;;13.52;;
14603;SDS011;7388;51.078;13.740;2022-10-17T05:43:41;17.47;;;13.03;;
14603;SDS011;7388;51.078;13.740;2022-10-17T05:46:07;25.20;;;16.63;;
14603;SDS011;7388;51.078;13.740;2022-10-17T05:48:33;17.30;;;14.63;;
14603;SDS011;7388;51.078;13.740;2022-10-17T05:51:00;20.60;;;15.90;;
14603;SDS011;7388;51.078;13.740;2022-10-17T05:53:31;23.05;;;17.33;;
14603;SDS011;7388;51.078;13.740;2022-10-17T05:56:01;24.67;;;18.83;;
14603;SDS011;7388;51.078;13.740;2022-10-17T05:58:28;26.23;;;18.58;;
14603;SDS011;7388;51.078;13.740;2022-10-17T06:01:01;24.27;;;17.42;;
14603;SDS011;7388;51.078;13.740;2022-10-17T06:03:30;27.25;;;18.58;;
14603;SDS011;7388;51.078;13.740;2022-10-17T06:06:07;31.98;;;21.65;;
14603;SDS011;7388;51.078;13.740;2022-10-17T06:08:35;27.42;;;20.25;;
14603;SDS011;7388;51.078;13.740;2022-10-17T06:11:01;34.90;;;24.85;;
14603;SDS011;7388;51.078;13.740;2022-10-17T06:13:27;29.73;;;22.98;;
14603;SDS011;7388;51.078;13.740;2022-10-17T06:15:54;33.97;;;24.75;;
14603;SDS011;7388;51.078;13.740;2022-10-17T06:18:20;37.53;;;26.30;;
14603;SDS011;7388;51.078;13.740;2022-10-17T06:20:45;35.03;;;24.20;;
14603;SDS011;7388;51.078;13.740;2022-10-17T06:23:11;36.80;;;27.88;;
14603;SDS011;7388;51.078;13.740;2022-10-17T06:25:37;29.73;;;22.73;;
14603;SDS011;7388;51.078;13.740;2022-10-17T06:28:03;31.87;;;23.10;;
14603;SDS011;7388;51.078;13.740;2022-10-17T06:30:29;41.90;;;28.73;;
14603;SDS011;7388;51.078;13.740;2022-10-17T06:32:54;37.23;;;27.50;;
14603;SDS011;7388;51.078;13.740;2022-10-17T06:35:20;38.03;;;27.20;;
14603;SDS011;7388;51.078;13.740;2022-10-17T06:37:46;44.70;;;30.73;;
14603;SDS011;7388;51.078;13.740;2022-10-17T06:40:12;42.57;;;31.53;;
14603;SDS011;7388;51.078;13.740;2022-10-17T06:42:40;47.05;;;32.55;;
14603;SDS011;7388;51.078;13.740;2022-10-17T06:45:07;40.58;;;27.60;;
14603;SDS011;7388;51.078;13.740;2022-10-17T06:47:34;38.17;;;29.10;;
14603;SDS011;7388;51.078;13.740;2022-10-17T06:50:01;38.88;;;25.88;;
14603;SDS011;7388;51.078;13.740;2022-10-17T06:52:27;34.63;;;27.52;;
14603;SDS011;7388;51.078;13.740;2022-10-17T06:54:53;34.00;;;24.63;;
14603;SDS011;7388;51.078;13.740;2022-10-17T06:57:19;33.30;;;25.50;;
14603;SDS011;7388;51.078;13.740;2022-10-17T06:59:44;33.70;;;24.80;;
14603;SDS011;7388;51.078;13.740;2022-10-17T07:02:10;35.60;;;26.47;;
14603;SDS011;7388;51.078;13.740;2022-10-17T07:04:36;32.17;;;24.13;;
14603;SDS011;7388;51.078;13.740;2022-10-17T07:07:02;29.60;;;26.07;;
14603;SDS011;7388;51.078;13.740;2022-10-17T07:09:31;29.83;;;23.30;;
14603;SDS011;7388;51.078;13.740;2022-10-17T07:11:57;29.90;;;24.98;;
14603;SDS011;7388;51.078;13.740;2022-10-17T07:14:23;29.40;;;24.67;;
14603;SDS011;7388;51.078;13.740;2022-10-17T07:16:56;30.83;;;24.17;;
14603;SDS011;7388;51.078;13.740;2022-10-17T07:19:23;36.63;;;25.40;;
14603;SDS011;7388;51.078;13.740;2022-10-17T07:21:49;33.90;;;25.73;;
14603;SDS011;7388;51.078;13.740;2022-10-17T07:24:14;33.30;;;26.93;;
14603;SDS011;7388;51.078;13.740;2022-10-17T07:26:40;31.77;;;24.97;;
14603;SDS011;7388;51.078;13.740;2022-10-17T07:29:06;29.50;;;22.53;;
14603;SDS011;7388;51.078;13.740;2022-10-17T07:31:32;33.37;;;26.10;;
14603;SDS011;7388;51.078;13.740;2022-10-17T07:33:58;31.53;;;24.33;;
14603;SDS011;7388;51.078;13.740;2022-10-17T07:36:24;36.70;;;25.02;;
14603;SDS011;7388;51.078;13.740;2022-10-17T07:38:50;26.83;;;21.67;;
14603;SDS011;7388;51.078;13.740;2022-10-17T07:41:16;27.93;;;24.50;;
14603;SDS011;7388;51.078;13.740;2022-10-17T07:43:43;27.97;;;22.60;;
14603;SDS011;7388;51.078;13.740;2022-10-17T07:46:09;26.20;;;21.90;;
14603;SDS011;7388;51.078;13.740;2022-10-17T07:48:36;34.10;;;26.10;;
14603;SDS011;7388;51.078;13.740;2022-10-17T07:51:03;27.97;;;23.67;;
14603;SDS011;7388;51.078;13.740;2022-10-17T07:53:31;31.00;;;25.70;;
14603;SDS011;7388;51.078;13.740;2022-10-17T07:56:01;27.00;;;22.80;;
14603;SDS011;7388;51.078;13.740;2022-10-17T07:58:28;27.30;;;22.40;;
14603;SDS011;7388;51.078;13.740;2022-10-17T08:00:59;36.27;;;24.27;;
14603;SDS011;7388;51.078;13.740;2022-10-17T08:03:25;29.47;;;24.00;;
14603;SDS011;7388;51.078;13.740;2022-10-17T08:05:51;28.40;;;24.80;;
14603;SDS011;7388;51.078;13.740;2022-10-17T08:08:20;26.07;;;22.97;;
14603;SDS011;7388;51.078;13.740;2022-10-17T08:10:46;26.13;;;23.00;;
14603;SDS011;7388;51.078;13.740;2022-10-17T08:13:12;28.77;;;23.73;;
14603;SDS011;7388;51.078;13.740;2022-10-17T08:15:37;25.63;;;21.87;;
14603;SDS011;7388;51.078;13.740;2022-10-17T08:18:03;26.13;;;21.67;;
14603;SDS011;7388;51.078;13.740;2022-10-17T08:20:29;30.80;;;24.13;;
14603;SDS011;7388;51.078;13.740;2022-10-17T08:22:55;28.60;;;22.43;;
14603;SDS011;7388;51.078;13.740;2022-10-17T08:25:20;27.17;;;23.13;;
14603;SDS011;7388;51.078;13.740;2022-10-17T08:27:47;29.53;;;22.87;;
14603;SDS011;7388;51.078;13.740;2022-10-17T08:30:13;25.53;;;21.53;;
14603;SDS011;7388;51.078;13.740;2022-10-17T08:32:39;27.10;;;23.53;;
14603;SDS011;7388;51.078;13.740;2022-10-17T08:35:05;26.60;;;22.20;;
14603;SDS011;7388;51.078;13.740;2022-10-17T08:37:31;26.57;;;23.30;;
14603;SDS011;7388;51.078;13.740;2022-10-17T08:39:57;23.97;;;21.27;;
14603;SDS011;7388;51.078;13.740;2022-10-17T08:45:11;25.00;;;21.23;;
14603;SDS011;7388;51.078;13.740;2022-10-17T08:47:51;31.93;;;21.73;;
14603;SDS011;7388;51.078;13.740;2022-10-17T08:55:38;25.70;;;22.13;;
14603;SDS011;7388;51.078;13.740;2022-10-17T08:58:19;27.90;;;23.50;;
14603;SDS011;7388;51.078;13.740;2022-10-17T09:00:55;26.63;;;21.90;;
14603;SDS011;7388;51.078;13.740;2022-10-17T09:08:59;24.17;;;20.63;;
14603;SDS011;7388;51.078;13.740;2022-10-17T09:11:59;26.67;;;23.73;;
14603;SDS011;7388;51.078;13.740;2022-10-17T09:22:41;28.27;;;23.17;;
14603;SDS011;7388;51.078;13.740;2022-10-17T09:25:24;24.00;;;21.20;;
14603;SDS011;7388;51.078;13.740;2022-10-17T09:27:52;25.90;;;22.70;;
14603;SDS011;7388;51.078;13.740;2022-10-17T09:33:17;28.77;;;24.30;;
14603;SDS011;7388;51.078;13.740;2022-10-17T09:35:45;25.27;;;21.90;;
14603;SDS011;7388;51.078;13.740;2022-10-17T09:38:19;24.60;;;21.40;;
14603;SDS011;7388;51.078;13.740;2022-10-17T09:41:04;26.97;;;24.10;;
14603;SDS011;7388;51.078;13.740;2022-10-17T09:43:38;31.03;;;24.17;;
14603;SDS011;7388;51.078;13.740;2022-10-17T09:46:05;25.97;;;22.37;;
14603;SDS011;7388;51.078;13.740;2022-10-17T09:48:42;29.17;;;22.57;;
14603;SDS011;7388;51.078;13.740;2022-10-17T09:51:24;31.93;;;22.10;;
14603;SDS011;7388;51.078;13.740;2022-10-17T09:53:53;28.67;;;24.27;;
14603;SDS011;7388;51.078;13.740;2022-10-17T09:56:54;25.00;;;22.30;;
14603;SDS011;7388;51.078;13.740;2022-10-17T09:59:30;25.87;;;21.23;;
14603;SDS011;7388;51.078;13.740;2022-10-17T10:02:06;26.93;;;23.17;;
14603;SDS011;7388;51.078;13.740;2022-10-17T10:04:54;25.27;;;20.90;;
14603;SDS011;7388;51.078;13.740;2022-10-17T10:07:24;26.37;;;22.37;;
14603;SDS011;7388;51.078;13.740;2022-10-17T10:09:52;28.47;;;22.60;;
14603;SDS011;7388;51.078;13.740;2022-10-17T10:12:22;24.73;;;22.03;;
14603;SDS011;7388;51.078;13.740;2022-10-17T10:14:53;21.80;;;19.60;;
14603;SDS011;7388;51.078;13.740;2022-10-17T10:17:33;24.10;;;20.57;;
14603;SDS011;7388;51.078;13.740;2022-10-17T10:19:59;24.73;;;21.40;;
14603;SDS011;7388;51.078;13.740;2022-10-17T10:22:25;26.80;;;23.17;;
14603;SDS011;7388;51.078;13.740;2022-10-17T10:25:07;27.10;;;21.03;;
14603;SDS011;7388;51.078;13.740;2022-10-17T10:27:35;26.40;;;21.30;;
14603;SDS011;7388;51.078;13.740;2022-10-17T10:30:03;24.13;;;21.53;;
14603;SDS011;7388;51.078;13.740;2022-10-17T10:32:30;30.50;;;20.23;;
14603;SDS011;7388;51.078;13.740;2022-10-17T10:35:06;23.70;;;20.90;;
14603;SDS011;7388;51.078;13.740;2022-10-17T10:37:43;24.90;;;20.37;;
14603;SDS011;7388;51.078;13.740;2022-10-17T10:42:49;24.20;;;21.10;;
14603;SDS011;7388;51.078;13.740;2022-10-17T10:45:17;21.90;;;19.47;;
14603;SDS011;7388;51.078;13.740;2022-10-17T10:47:57;24.47;;;19.63;;
14603;SDS011;7388;51.078;13.740;2022-10-17T10:50:44;22.00;;;19.20;;
14603;SDS011;7388;51.078;13.740;2022-10-17T10:55:58;21.80;;;18.40;;
14603;SDS011;7388;51.078;13.740;2022-10-17T10:58:48;21.73;;;19.33;;
14603;SDS011;7388;51.078;13.740;2022-10-17T11:10:18;19.30;;;17.30;;
14603;SDS011;7388;51.078;13.740;2022-10-17T11:13:05;25.33;;;20.40;;
14603;SDS011;7388;51.078;13.740;2022-10-17T11:15:46;20.70;;;17.43;;
14603;SDS011;7388;51.078;13.740;2022-10-17T11:18:25;20.30;;;18.20;;
14603;SDS011;7388;51.078;13.740;2022-10-17T11:26:21;21.77;;;19.43;;
14603;SDS011;7388;51.078;13.740;2022-10-17T11:29:01;21.50;;;19.30;;
14603;SDS011;7388;51.078;13.740;2022-10-17T11:31:33;20.80;;;18.60;;
14603;SDS011;7388;51.078;13.740;2022-10-17T11:34:21;23.57;;;18.97;;
14603;SDS011;7388;51.078;13.740;2022-10-17T11:36:51;21.10;;;19.00;;
14603;SDS011;7388;51.078;13.740;2022-10-17T11:42:17;19.07;;;16.37;;
14603;SDS011;7388;51.078;13.740;2022-10-17T11:44:51;19.13;;;17.13;;
14603;SDS011;7388;51.078;13.740;2022-10-17T11:47:30;19.67;;;17.67;;
14603;SDS011;7388;51.078;13.740;2022-10-17T11:55:14;19.77;;;17.50;;
14603;SDS011;7388;51.078;13.740;2022-10-17T12:06:07;18.20;;;16.30;;
14603;SDS011;7388;51.078;13.740;2022-10-17T12:17:01;17.20;;;15.40;;
14603;SDS011;7388;51.078;13.740;2022-10-17T12:19:29;16.40;;;14.70;;
14603;SDS011;7388;51.078;13.740;2022-10-17T12:27:34;16.43;;;14.70;;
14603;SDS011;7388;51.078;13.740;2022-10-17T12:32:37;19.47;;;15.53;;
14603;SDS011;7388;51.078;13.740;2022-10-17T12:35:20;17.00;;;15.27;;
14603;SDS011;7388;51.078;13.740;2022-10-17T12:43:31;17.53;;;15.80;;
14603;SDS011;7388;51.078;13.740;2022-10-17T12:56:14;18.43;;;16.50;;
14603;SDS011;7388;51.078;13.740;2022-10-17T12:58:45;17.43;;;15.73;;
14603;SDS011;7388;51.078;13.740;2022-10-17T13:01:26;18.10;;;16.20;;
14603;SDS011;7388;51.078;13.740;2022-10-17T13:03:55;18.33;;;16.53;;
14603;SDS011;7388;51.078;13.740;2022-10-17T13:06:24;19.33;;;17.33;;
14603;SDS011;7388;51.078;13.740;2022-10-17T13:11:50;17.00;;;14.87;;
14603;SDS011;7388;51.078;13.740;2022-10-17T13:14:18;17.00;;;15.23;;
14603;SDS011;7388;51.078;13.740;2022-10-17T13:16:50;28.67;;;16.20;;
14603;SDS011;7388;51.078;13.740;2022-10-17T13:19:25;19.27;;;17.37;;
14603;SDS011;7388;51.078;13.740;2022-10-17T13:22:01;17.50;;;15.80;;
14603;SDS011;7388;51.078;13.740;2022-10-17T13:24:34;21.10;;;16.80;;
14603;SDS011;7388;51.078;13.740;2022-10-17T13:27:02;20.50;;;17.93;;
14603;SDS011;7388;51.078;13.740;2022-10-17T13:29:29;18.17;;;15.90;;
14603;SDS011;7388;51.078;13.740;2022-10-17T13:32:03;18.97;;;16.97;;
14603;SDS011;7388;51.078;13.740;2022-10-17T13:34:30;22.37;;;18.33;;
14603;SDS011;7388;51.078;13.740;2022-10-17T13:36:58;20.93;;;18.70;;
14603;SDS011;7388;51.078;13.740;2022-10-17T13:39:27;18.87;;;16.87;;
14603;SDS011;7388;51.078;13.740;2022-10-17T13:41:57;19.10;;;17.03;;
14603;SDS011;7388;51.078;13.740;2022-10-17T13:44:25;20.47;;;16.70;;
14603;SDS011;7388;51.078;13.740;2022-10-17T13:46:52;19.23;;;17.23;;
14603;SDS011;7388;51.078;13.740;2022-10-17T13:51:55;22.07;;;18.10;;
14603;SDS011;7388;51.078;13.740;2022-10-17T13:54:31;21.90;;;17.67;;
14603;SDS011;7388;51.078;13.740;2022-10-17T13:57:02;22.10;;;19.70;;
14603;SDS011;7388;51.078;13.740;2022-10-17T14:00:16;19.43;;;17.20;;
14603;SDS011;7388;51.078;13.740;2022-10-17T14:02:20;19.47;;;17.47;;
14603;SDS011;7388;51.078;13.740;2022-10-17T14:07:34;20.50;;;18.13;;
14603;SDS011;7388;51.078;13.740;2022-10-17T14:10:04;21.40;;;17.83;;
14603;SDS011;7388;51.078;13.740;2022-10-17T14:12:42;19.50;;;17.27;;
14603;SDS011;7388;51.078;13.740;2022-10-17T14:15:08;24.27;;;16.83;;
14603;SDS011;7388;51.078;13.740;2022-10-17T14:17:39;22.53;;;20.13;;
14603;SDS011;7388;51.078;13.740;2022-10-17T14:20:06;22.10;;;19.33;;
14603;SDS011;7388;51.078;13.740;2022-10-17T14:22:34;23.30;;;19.40;;
14603;SDS011;7388;51.078;13.740;2022-10-17T14:25:01;22.10;;;18.47;;
14603;SDS011;7388;51.078;13.740;2022-10-17T14:27:32;26.13;;;17.97;;
14603;SDS011;7388;51.078;13.740;2022-10-17T14:32:55;22.47;;;18.60;;
14603;SDS011;7388;51.078;13.740;2022-10-17T14:35:23;21.80;;;19.50;;
14603;SDS011;7388;51.078;13.740;2022-10-17T14:37:50;20.53;;;18.47;;
14603;SDS011;7388;51.078;13.740;2022-10-17T14:40:21;22.10;;;18.70;;
14603;SDS011;7388;51.078;13.740;2022-10-17T14:42:52;22.20;;;19.80;;
14603;SDS011;7388;51.078;13.740;2022-10-17T14:45:26;21.43;;;19.13;;
14603;SDS011;7388;51.078;13.740;2022-10-17T14:48:02;23.10;;;20.70;;
14603;SDS011;7388;51.078;13.740;2022-10-17T14:50:32;23.30;;;20.80;;
14603;SDS011;7388;51.078;13.740;2022-10-17T14:55:34;22.93;;;19.23;;
14603;SDS011;7388;51.078;13.740;2022-10-17T14:58:19;24.93;;;18.57;;
14603;SDS011;7388;51.078;13.740;2022-10-17T15:00:48;25.73;;;20.53;;
14603;SDS011;7388;51.078;13.740;2022-10-17T15:03:14;25.93;;;20.40;;
14603;SDS011;7388;51.078;13.740;2022-10-17T15:05:43;25.03;;;21.07;;
14603;SDS011;7388;51.078;13.740;2022-10-17T15:08:13;22.97;;;19.47;;
14603;SDS011;7388;51.078;13.740;2022-10-17T15:10:40;23.90;;;20.77;;
14603;SDS011;7388;51.078;13.740;2022-10-17T15:13:08;24.77;;;21.47;;
14603;SDS011;7388;51.078;13.740;2022-10-17T15:15:34;28.10;;;21.17;;
14603;SDS011;7388;51.078;13.740;2022-10-17T15:18:02;26.17;;;20.87;;
14603;SDS011;7388;51.078;13.740;2022-10-17T15:20:28;25.57;;;21.53;;
14603;SDS011;7388;51.078;13.740;2022-10-17T15:22:55;26.93;;;22.37;;
14603;SDS011;7388;51.078;13.740;2022-10-17T15:25:23;22.87;;;20.53;;
14603;SDS011;7388;51.078;13.740;2022-10-17T15:27:49;23.90;;;20.37;;
14603;SDS011;7388;51.078;13.740;2022-10-17T15:30:17;27.13;;;21.20;;
14603;SDS011;7388;51.078;13.740;2022-10-17T15:32:46;26.50;;;21.10;;
14603;SDS011;7388;51.078;13.740;2022-10-17T15:35:12;26.63;;;22.17;;
14603;SDS011;7388;51.078;13.740;2022-10-17T15:37:38;26.77;;;22.60;;
14603;SDS011;7388;51.078;13.740;2022-10-17T15:40:04;25.27;;;21.10;;
14603;SDS011;7388;51.078;13.740;2022-10-17T15:42:31;27.07;;;19.97;;
14603;SDS011;7388;51.078;13.740;2022-10-17T15:44:57;27.67;;;22.83;;
14603;SDS011;7388;51.078;13.740;2022-10-17T15:47:23;24.73;;;20.70;;
14603;SDS011;7388;51.078;13.740;2022-10-17T15:49:55;27.03;;;21.50;;
14603;SDS011;7388;51.078;13.740;2022-10-17T15:52:21;25.13;;;20.57;;
14603;SDS011;7388;51.078;13.740;2022-10-17T15:54:47;24.20;;;21.30;;
14603;SDS011;7388;51.078;13.740;2022-10-17T15:59:46;23.70;;;20.83;;
14603;SDS011;7388;51.078;13.740;2022-10-17T16:02:15;28.23;;;22.00;;
14603;SDS011;7388;51.078;13.740;2022-10-17T16:04:41;32.87;;;22.43;;
14603;SDS011;7388;51.078;13.740;2022-10-17T16:07:08;26.40;;;21.20;;
14603;SDS011;7388;51.078;13.740;2022-10-17T16:09:34;25.10;;;20.33;;
14603;SDS011;7388;51.078;13.740;2022-10-17T16:12:01;25.30;;;20.03;;
14603;SDS011;7388;51.078;13.740;2022-10-17T16:14:29;27.80;;;22.70;;
14603;SDS011;7388;51.078;13.740;2022-10-17T16:16:56;29.20;;;22.10;;
14603;SDS011;7388;51.078;13.740;2022-10-17T16:19:25;27.70;;;22.67;;
14603;SDS011;7388;51.078;13.740;2022-10-17T16:21:54;30.03;;;24.63;;
14603;SDS011;7388;51.078;13.740;2022-10-17T16:24:22;30.30;;;24.17;;
14603;SDS011;7388;51.078;13.740;2022-10-17T16:26:48;28.30;;;22.87;;
14603;SDS011;7388;51.078;13.740;2022-10-17T16:29:14;31.13;;;23.20;;
14603;SDS011;7388;51.078;13.740;2022-10-17T16:31:41;26.13;;;23.00;;
14603;SDS011;7388;51.078;13.740;2022-10-17T16:34:09;30.90;;;23.77;;
14603;SDS011;7388;51.078;13.740;2022-10-17T16:36:39;33.77;;;24.00;;
14603;SDS011;7388;51.078;13.740;2022-10-17T16:39:05;26.83;;;22.30;;
14603;SDS011;7388;51.078;13.740;2022-10-17T16:41:32;27.43;;;24.53;;
14603;SDS011;7388;51.078;13.740;2022-10-17T16:44:04;29.53;;;24.97;;
14603;SDS011;7388;51.078;13.740;2022-10-17T16:46:31;28.07;;;23.00;;
14603;SDS011;7388;51.078;13.740;2022-10-17T16:48:59;31.33;;;25.10;;
14603;SDS011;7388;51.078;13.740;2022-10-17T16:51:25;27.77;;;21.93;;
14603;SDS011;7388;51.078;13.740;2022-10-17T16:53:53;33.03;;;22.33;;
14603;SDS011;7388;51.078;13.740;2022-10-17T16:56:21;30.60;;;26.00;;
14603;SDS011;7388;51.078;13.740;2022-10-17T16:58:48;27.40;;;22.50;;
14603;SDS011;7388;51.078;13.740;2022-10-17T17:01:19;28.87;;;23.60;;
14603;SDS011;7388;51.078;13.740;2022-10-17T17:03:47;29.40;;;22.80;;
14603;SDS011;7388;51.078;13.740;2022-10-17T17:06:14;26.13;;;22.57;;